Time;durP1;ratioP1;P1;durP2;ratioP2;P2;SDS_P1;SDS_P2;PMS_P1;PMS_P2;Temp;Humidity;BMP_temperature;BMP_pressure;BME280_temperature;BME280_humidity;BME280_pressure;Samples;Min_cycle;Max_cycle;Signal;HPM_P1;HPM_P2
2021/12/27 00:01:00;;;;;;;1.10;1.10;;;;;;;1.09;30.97;98546.41;5036413;28;20279;-65
2021/12/27 00:03:26;;;;;;;0.90;0.90;;;;;;;0.99;31.02;98553.34;5036678;28;20389;-67
2021/12/27 00:05:53;;;;;;;1.60;1.50;;;;;;;1.13;30.65;98534.75;5053175;28;20290;-69
2021/12/27 00:08:19;;;;;;;0.80;0.80;;;;;;;1.02;31.20;98553.09;5036583;28;20282;-66
2021/12/27 00:10:45;;;;;;;0.90;0.90;;;;;;;0.86;30.92;98542.22;5036020;28;20342;-65
2021/12/27 00:13:10;;;;;;;1.30;1.20;;;;;;;0.98;30.70;98553.47;5036260;28;20346;-65
2021/12/27 00:15:37;;;;;;;1.67;1.43;;;;;;;0.72;30.64;98513.78;5036268;28;20071;-65
2021/12/27 00:18:03;;;;;;;0.80;0.80;;;;;;;0.91;30.99;98557.53;5052522;28;20057;-65
2021/12/27 00:20:28;;;;;;;0.77;0.77;;;;;;;0.82;30.54;98542.59;5052406;28;20669;-66
2021/12/27 00:22:54;;;;;;;0.90;0.90;;;;;;;0.85;31.07;98555.41;5069184;28;20113;-66
2021/12/27 00:25:20;;;;;;;0.80;0.80;;;;;;;1.15;30.87;98571.25;5086455;28;20056;-65
2021/12/27 00:27:47;;;;;;;1.20;1.20;;;;;;;0.86;30.91;98546.63;5070895;28;20182;-65
2021/12/27 00:30:15;;;;;;;0.77;0.77;;;;;;;1.36;30.85;98570.31;5052085;28;20659;-65
2021/12/27 00:32:43;;;;;;;0.70;0.70;;;;;;;0.83;30.97;98566.00;5052360;28;20309;-65
2021/12/27 00:35:15;;;;;;;0.80;0.80;;;;;;;1.40;30.49;98570.84;5068976;28;20333;-65
2021/12/27 00:37:41;;;;;;;0.83;0.83;;;;;;;1.18;30.54;98568.38;5052459;28;20813;-65
2021/12/27 00:40:09;;;;;;;1.07;1.07;;;;;;;1.07;30.71;98526.59;5052162;28;20444;-65
2021/12/27 00:42:35;;;;;;;0.80;0.80;;;;;;;0.88;30.96;98563.84;5035911;28;20278;-66
2021/12/27 00:45:01;;;;;;;1.83;1.73;;;;;;;0.85;31.12;98563.25;5069315;28;20655;-65
2021/12/27 00:47:29;;;;;;;0.80;0.80;;;;;;;0.68;31.04;98567.22;5085854;28;20651;-66
2021/12/27 00:49:56;;;;;;;0.80;0.80;;;;;;;0.73;31.10;98569.47;5051120;28;20286;-69
2021/12/27 00:52:22;;;;;;;0.90;0.90;;;;;;;0.44;30.95;98544.84;5069218;28;20052;-66
2021/12/27 00:54:48;;;;;;;0.90;0.90;;;;;;;0.71;30.84;98587.06;5035342;28;20282;-65
2021/12/27 00:57:16;;;;;;;0.93;0.93;;;;;;;0.48;30.97;98578.44;5052511;28;20079;-62
2021/12/27 00:59:42;;;;;;;0.87;0.87;;;;;;;0.68;30.64;98603.81;5067764;28;20349;-65
2021/12/27 01:02:08;;;;;;;1.40;1.30;;;;;;;0.61;31.02;98596.56;5051473;28;20063;-64
2021/12/27 01:04:34;;;;;;;0.80;0.80;;;;;;;0.61;30.64;98593.97;5035536;28;20044;-66
2021/12/27 01:07:02;;;;;;;0.87;0.87;;;;;;;1.25;30.92;98604.34;5052082;28;20579;-64
2021/12/27 01:10:03;;;;;;;1.40;1.30;;;;;;;0.50;31.08;98612.25;5068103;28;20301;-64
2021/12/27 01:12:45;;;;;;;1.10;1.10;;;;;;;0.53;30.91;98586.75;5068135;28;20797;-64
2021/12/27 01:17:42;;;;;;;0.90;0.90;;;;;;;1.13;31.31;98610.59;5068376;28;20293;-64
2021/12/27 01:20:11;;;;;;;0.80;0.80;;;;;;;1.36;30.72;98616.53;5034599;28;20294;-64
2021/12/27 01:22:36;;;;;;;0.80;0.80;;;;;;;0.51;30.73;98587.81;5051816;28;20291;-64
2021/12/27 01:25:06;;;;;;;1.03;1.03;;;;;;;1.35;31.07;98620.13;5034961;28;20654;-64
2021/12/27 01:27:32;;;;;;;0.80;0.80;;;;;;;1.29;31.13;98631.09;5051865;28;20496;-65
2021/12/27 01:29:58;;;;;;;0.80;0.80;;;;;;;0.84;30.95;98625.16;5018668;28;20281;-64
2021/12/27 01:32:28;;;;;;;1.50;1.40;;;;;;;0.88;31.19;98628.34;5062607;28;20692;-64
2021/12/27 01:34:54;;;;;;;1.77;1.67;;;;;;;0.66;31.27;98592.63;5072057;28;20134;-64
2021/12/27 01:37:20;;;;;;;0.80;0.80;;;;;;;0.94;30.84;98639.16;5038588;28;20135;-65
2021/12/27 01:39:46;;;;;;;1.10;1.10;;;;;;;1.15;31.21;98628.75;5071172;28;20093;-64
2021/12/27 01:42:12;;;;;;;1.30;1.20;;;;;;;0.95;30.98;98653.91;5071756;28;20162;-65
2021/12/27 01:44:39;;;;;;;0.93;0.93;;;;;;;0.83;31.12;98626.09;5054458;28;20273;-65
2021/12/27 01:47:06;;;;;;;1.03;1.03;;;;;;;0.81;31.34;98599.28;5088350;28;20105;-64
2021/12/27 01:49:32;;;;;;;0.90;0.90;;;;;;;1.14;31.07;98642.75;5087572;28;20296;-64
2021/12/27 01:51:58;;;;;;;0.90;0.90;;;;;;;1.09;31.21;98658.00;5089541;28;20324;-67
2021/12/27 01:54:24;;;;;;;0.90;0.90;;;;;;;1.08;31.20;98648.50;5088679;28;20302;-64
2021/12/27 01:56:51;;;;;;;0.80;0.80;;;;;;;1.66;31.10;98654.09;5088119;28;20331;-64
2021/12/27 01:59:18;;;;;;;0.70;0.70;;;;;;;1.06;31.18;98617.25;5087852;28;20044;-66
2021/12/27 02:01:44;;;;;;;1.10;1.07;;;;;;;1.28;31.20;98660.78;5071243;28;20047;-65
2021/12/27 02:04:10;;;;;;;1.13;1.13;;;;;;;1.24;31.06;98657.63;5090279;28;20298;-64
2021/12/27 02:06:35;;;;;;;1.70;1.60;;;;;;;1.21;30.91;98654.41;5050520;28;21860;-66
2021/12/27 02:09:03;;;;;;;0.83;0.83;;;;;;;1.58;31.23;98659.13;5056885;28;20428;-66
2021/12/27 02:11:33;;;;;;;0.80;0.80;;;;;;;1.26;31.17;98668.75;5073166;28;20062;-69
2021/12/27 02:14:02;;;;;;;0.80;0.80;;;;;;;1.64;31.01;98673.50;5075753;28;20778;-66
2021/12/27 02:16:28;;;;;;;0.87;0.87;;;;;;;1.27;31.36;98662.59;5076146;28;20321;-65
2021/12/27 02:18:54;;;;;;;0.80;0.80;;;;;;;1.49;31.25;98667.72;5040421;28;20318;-65
2021/12/27 02:21:20;;;;;;;1.37;1.27;;;;;;;1.64;31.09;98676.97;5074712;28;20434;-65
2021/12/27 02:23:49;;;;;;;1.43;1.40;;;;;;;1.72;31.08;98679.75;5057814;28;20398;-64
2021/12/27 02:26:15;;;;;;;0.90;0.90;;;;;;;1.34;31.06;98661.13;5041283;28;20036;-65
2021/12/27 02:28:40;;;;;;;1.43;1.10;;;;;;;1.30;31.14;98658.91;5090287;28;20043;-65
2021/12/27 02:31:07;;;;;;;1.10;1.10;;;;;;;1.59;31.05;98659.97;5048961;28;20293;-65
2021/12/27 02:33:36;;;;;;;1.27;1.27;;;;;;;2.11;30.74;98685.28;5089720;28;20084;-65
2021/12/27 02:36:02;;;;;;;0.80;0.80;;;;;;;1.50;30.59;98686.88;5074161;28;20063;-65
2021/12/27 02:38:46;;;;;;;0.80;0.80;;;;;;;2.36;30.66;98695.34;5039499;28;20317;-69
2021/12/27 02:41:12;;;;;;;2.17;1.50;;;;;;;1.76;31.02;98696.06;5069838;28;20386;-65
2021/12/27 02:43:41;;;;;;;0.80;0.80;;;;;;;1.51;31.02;98696.38;5040962;28;20089;-65
2021/12/27 02:46:10;;;;;;;1.03;1.03;;;;;;;2.03;30.84;98696.38;5056495;28;20285;-65
2021/12/27 02:48:39;;;;;;;1.30;1.30;;;;;;;2.11;30.47;98721.94;5071673;28;20286;-65
2021/12/27 02:51:08;;;;;;;1.47;1.20;;;;;;;1.88;30.97;98705.50;5074466;28;20138;-64
2021/12/27 02:53:34;;;;;;;0.97;0.97;;;;;;;1.83;30.90;98717.31;5073929;28;20316;-64
2021/12/27 02:56:01;;;;;;;1.13;1.13;;;;;;;1.92;31.03;98722.63;5038675;28;20037;-64
2021/12/27 02:58:27;;;;;;;0.80;0.80;;;;;;;1.98;31.32;98726.53;5073365;28;20369;-64
2021/12/27 03:00:58;;;;;;;0.80;0.80;;;;;;;2.38;31.29;98730.09;5042580;28;20106;-63
2021/12/27 03:03:24;;;;;;;0.90;0.90;;;;;;;1.85;31.10;98718.84;5020464;28;20044;-63
2021/12/27 03:05:52;;;;;;;0.77;0.77;;;;;;;1.90;31.41;98734.19;5073851;28;20523;-65
2021/12/27 03:08:19;;;;;;;0.80;0.80;;;;;;;2.16;31.08;98745.94;5074024;28;20286;-64
2021/12/27 03:10:48;;;;;;;0.90;0.90;;;;;;;2.43;31.11;98733.19;5085922;28;20063;-63
2021/12/27 03:13:25;;;;;;;0.70;0.70;;;;;;;2.79;31.00;98741.38;5084165;28;20301;-65
2021/12/27 03:15:56;;;;;;;0.80;0.80;;;;;;;2.40;30.83;98749.97;5035152;28;20052;-66
2021/12/27 03:18:22;;;;;;;0.73;0.73;;;;;;;1.99;31.14;98743.88;5068799;28;20124;-64
2021/12/27 03:20:49;;;;;;;0.70;0.70;;;;;;;2.43;31.22;98754.94;5052905;28;20159;-60
2021/12/27 03:23:15;;;;;;;1.00;1.00;;;;;;;2.04;31.20;98745.19;5070484;28;20040;-59
2021/12/27 03:25:41;;;;;;;1.73;1.63;;;;;;;1.97;31.15;98756.28;5069400;28;20629;-60
2021/12/27 03:28:07;;;;;;;1.17;1.17;;;;;;;2.40;31.26;98755.22;5071429;28;20131;-58
2021/12/27 03:30:34;;;;;;;1.30;1.30;;;;;;;1.83;31.12;98688.53;5071701;28;20045;-59
2021/12/27 03:33:00;;;;;;;0.80;0.80;;;;;;;2.07;31.10;98760.66;5053801;28;20416;-58
2021/12/27 03:35:28;;;;;;;1.33;1.20;;;;;;;2.05;31.33;98759.94;5070467;28;20054;-61
2021/12/27 03:37:56;;;;;;;1.20;1.20;;;;;;;2.38;31.20;98727.50;5069956;28;20089;-60
2021/12/27 03:40:23;;;;;;;0.70;0.70;;;;;;;2.29;31.36;98764.94;5069794;28;20052;-61
2021/12/27 03:42:52;;;;;;;2.30;2.10;;;;;;;2.30;31.33;98759.56;5069270;28;20051;-62
2021/12/27 03:45:20;;;;;;;2.00;1.43;;;;;;;2.55;31.08;98767.00;5037018;28;20067;-62
2021/12/27 03:47:46;;;;;;;0.90;0.90;;;;;;;2.29;31.11;98780.66;5069680;28;20513;-61
2021/12/27 03:50:12;;;;;;;4.80;2.07;;;;;;;1.90;31.42;98768.22;5069768;28;20416;-61
2021/12/27 03:52:37;;;;;;;0.90;0.90;;;;;;;1.83;31.20;98762.63;5069630;28;20036;-61
2021/12/27 03:55:05;;;;;;;1.13;1.13;;;;;;;2.56;31.42;98794.06;5072774;28;20054;-64
2021/12/27 03:57:36;;;;;;;0.70;0.70;;;;;;;2.68;31.47;98793.03;5088924;28;20055;-62
2021/12/27 04:14:09;;;;;;;0.80;0.80;;;;;;;2.49;31.20;98796.34;5068519;28;20113;-58
2021/12/27 04:16:54;;;;;;;1.10;1.10;;;;;;;2.29;31.15;98810.28;5088137;28;20040;-57
2021/12/27 04:19:38;;;;;;;1.90;1.37;;;;;;;1.92;30.98;98787.25;5071571;28;20092;-57
2021/12/27 04:22:23;;;;;;;0.80;0.80;;;;;;;2.30;31.36;98814.59;5086591;28;20101;-58
2021/12/27 04:25:07;;;;;;;1.47;1.27;;;;;;;2.21;31.28;98823.19;5057764;28;20528;-60
2021/12/27 04:27:51;;;;;;;1.00;1.00;;;;;;;2.26;31.04;98820.22;5087909;28;20058;-61
2021/12/27 04:30:36;;;;;;;0.80;0.80;;;;;;;2.33;31.33;98816.94;5087107;28;20402;-55
2021/12/27 04:33:02;;;;;;;1.67;1.57;;;;;;;2.37;31.32;98831.44;5086516;28;20852;-56
2021/12/27 04:35:28;;;;;;;1.17;1.13;;;;;;;2.32;31.35;98823.13;5088014;28;20043;-57
2021/12/27 04:37:54;;;;;;;2.43;1.50;;;;;;;2.13;31.14;98823.00;5088091;28;20562;-59
2021/12/27 04:40:21;;;;;;;1.40;1.30;;;;;;;2.70;31.03;98839.16;5086551;28;20143;-61
2021/12/27 04:42:50;;;;;;;1.00;1.00;;;;;;;2.82;31.22;98835.50;5071044;28;20047;-62
2021/12/27 04:45:17;;;;;;;1.03;1.03;;;;;;;2.27;31.26;98827.94;5090326;28;20040;-60
2021/12/27 04:47:43;;;;;;;0.90;0.90;;;;;;;2.22;30.94;98822.22;5089314;28;20709;-61
2021/12/27 04:50:09;;;;;;;1.37;1.33;;;;;;;2.48;30.88;98841.03;5090174;28;20044;-61
2021/12/27 04:52:36;;;;;;;1.30;1.30;;;;;;;2.30;30.91;98832.06;5088569;28;20043;-64
2021/12/27 04:55:02;;;;;;;0.90;0.90;;;;;;;2.52;31.16;98848.50;5071556;28;20043;-61
2021/12/27 04:57:29;;;;;;;1.60;1.50;;;;;;;2.18;30.98;98854.03;5087685;28;20122;-61
2021/12/27 04:59:55;;;;;;;1.80;1.70;;;;;;;2.18;31.22;98847.03;5055742;28;20222;-60
2021/12/27 05:02:20;;;;;;;0.70;0.70;;;;;;;2.47;31.18;98861.19;5089335;28;20075;-60
2021/12/27 05:04:46;;;;;;;1.07;1.07;;;;;;;2.38;31.01;98861.09;5089222;28;20063;-61
2021/12/27 05:07:12;;;;;;;1.03;1.03;;;;;;;2.24;30.90;98859.63;5089116;28;20249;-59
2021/12/27 05:09:37;;;;;;;0.83;0.83;;;;;;;2.28;30.46;98870.66;5089110;28;20040;-62
2021/12/27 05:12:04;;;;;;;0.90;0.90;;;;;;;2.49;30.71;98877.59;5072387;28;20072;-62
2021/12/27 05:14:29;;;;;;;1.17;1.03;;;;;;;2.20;30.64;98878.34;5105551;28;20051;-61
2021/12/27 05:16:55;;;;;;;1.90;1.77;;;;;;;2.17;30.82;98866.31;5089044;28;20047;-60
2021/12/27 05:19:23;;;;;;;1.37;1.27;;;;;;;2.54;30.78;98837.91;5089800;28;20040;-60
2021/12/27 05:21:51;;;;;;;1.13;1.13;;;;;;;2.05;30.95;98850.75;5090250;28;20040;-60
2021/12/27 05:24:18;;;;;;;0.80;0.80;;;;;;;2.05;30.99;98848.97;5089980;28;20040;-59
2021/12/27 05:26:44;;;;;;;1.27;1.27;;;;;;;2.24;30.46;98891.06;5088820;28;20129;-61
2021/12/27 05:29:10;;;;;;;1.27;1.27;;;;;;;2.17;30.67;98899.53;5088586;28;20054;-59
2021/12/27 05:31:37;;;;;;;0.90;0.90;;;;;;;2.23;30.94;98884.13;5090318;28;20054;-60
2021/12/27 05:34:10;;;;;;;0.70;0.70;;;;;;;2.33;31.20;98890.31;5089095;28;20131;-59
2021/12/27 05:36:37;;;;;;;0.87;0.87;;;;;;;2.25;30.83;98897.09;5075732;28;20035;-60
2021/12/27 05:39:03;;;;;;;0.80;0.80;;;;;;;2.19;31.00;98867.00;5078793;28;20224;-61
2021/12/27 05:41:29;;;;;;;0.90;0.90;;;;;;;1.84;31.05;98850.69;5096733;28;20074;-59
2021/12/27 05:43:55;;;;;;;1.00;1.00;;;;;;;2.09;31.24;98913.22;5078831;28;20044;-58
2021/12/27 05:46:20;;;;;;;1.00;1.00;;;;;;;2.10;31.04;98904.44;5096827;28;20040;-60
2021/12/27 05:48:46;;;;;;;1.40;1.30;;;;;;;1.84;30.79;98869.03;5096666;28;20094;-60
2021/12/27 05:51:12;;;;;;;1.00;1.00;;;;;;;2.16;31.01;98918.81;5097049;28;20044;-60
2021/12/27 05:53:38;;;;;;;1.63;1.53;;;;;;;2.01;31.09;98920.88;5097194;28;20042;-60
2021/12/27 05:56:03;;;;;;;1.73;1.60;;;;;;;2.04;30.78;98925.03;5096963;28;20464;-61
2021/12/27 05:58:29;;;;;;;1.13;1.13;;;;;;;2.10;31.16;98942.88;5078289;28;20040;-60
2021/12/27 06:00:55;;;;;;;0.90;0.90;;;;;;;1.88;31.03;98909.69;5095124;28;20424;-59
2021/12/27 06:03:21;;;;;;;0.90;0.90;;;;;;;1.93;30.81;98943.38;5095250;28;20565;-59
2021/12/27 06:05:46;;;;;;;1.13;1.07;;;;;;;2.02;30.83;98953.13;5095435;28;20402;-60
2021/12/27 06:08:12;;;;;;;1.57;1.47;;;;;;;2.02;31.24;98961.81;5078593;28;20039;-61
2021/12/27 06:10:38;;;;;;;2.13;1.27;;;;;;;1.81;31.12;98936.50;5097088;28;20522;-59
2021/12/27 06:13:04;;;;;;;1.00;1.00;;;;;;;1.77;31.13;98954.22;5095560;28;20040;-60
2021/12/27 06:15:29;;;;;;;1.10;1.10;;;;;;;1.90;30.86;98961.94;5094978;28;20088;-59
2021/12/27 06:17:55;;;;;;;1.00;1.00;;;;;;;1.92;31.07;98971.34;5096504;28;20130;-60
2021/12/27 06:20:21;;;;;;;1.20;1.20;;;;;;;1.90;31.08;98973.25;5096262;28;20051;-60
2021/12/27 06:22:50;;;;;;;1.03;1.03;;;;;;;2.47;30.85;98960.78;5112353;28;20036;-59
2021/12/27 06:25:16;;;;;;;0.70;0.70;;;;;;;1.88;30.56;98990.06;5095269;28;20563;-61
2021/12/27 06:27:42;;;;;;;1.53;1.43;;;;;;;1.80;31.10;98976.72;5096473;28;20118;-59
2021/12/27 06:30:10;;;;;;;2.07;1.93;;;;;;;2.21;31.00;98984.75;5095525;28;20456;-59
2021/12/27 06:32:36;;;;;;;0.93;0.93;;;;;;;2.18;30.78;98975.38;5078424;28;20048;-59
2021/12/27 06:35:04;;;;;;;3.83;2.53;;;;;;;2.20;31.06;98973.44;5061488;28;20051;-60
2021/12/27 06:37:29;;;;;;;0.90;0.90;;;;;;;1.72;30.92;98945.91;5095025;28;20036;-59
2021/12/27 06:39:55;;;;;;;2.70;2.00;;;;;;;1.94;30.72;98987.75;5078280;28;20535;-58
2021/12/27 06:42:21;;;;;;;3.60;2.53;;;;;;;1.84;30.74;98981.59;5095196;28;20126;-60
2021/12/27 06:44:46;;;;;;;0.90;0.90;;;;;;;1.67;30.76;98951.50;5078497;28;20510;-60
2021/12/27 06:47:12;;;;;;;1.20;1.20;;;;;;;2.08;30.62;98986.66;5077957;28;20488;-59
2021/12/27 06:49:39;;;;;;;1.87;1.70;;;;;;;1.92;30.54;98989.69;5075448;28;20046;-59
2021/12/27 06:52:05;;;;;;;1.53;1.47;;;;;;;1.86;30.73;98995.38;5075551;28;20097;-59
2021/12/27 06:54:31;;;;;;;1.67;1.57;;;;;;;1.24;30.69;98910.44;5091710;28;20047;-60
2021/12/27 06:57:00;;;;;;;0.70;0.70;;;;;;;1.86;31.07;99023.34;5091767;28;20043;-59
2021/12/27 06:59:27;;;;;;;1.03;1.03;;;;;;;2.35;30.85;98998.44;5092987;28;20040;-62
2021/12/27 07:01:53;;;;;;;1.00;1.00;;;;;;;1.96;31.06;99012.06;5093255;28;20052;-63
2021/12/27 07:04:19;;;;;;;3.40;1.50;;;;;;;1.77;30.98;99003.94;5108587;28;20443;-59
2021/12/27 07:06:45;;;;;;;0.80;0.80;;;;;;;2.03;30.74;99018.47;5091368;28;20085;-60
2021/12/27 07:09:14;;;;;;;1.50;1.40;;;;;;;1.92;30.94;99018.50;5091714;28;20092;-61
2021/12/27 07:11:41;;;;;;;1.90;1.63;;;;;;;1.62;30.79;98987.66;5092052;28;20086;-57
2021/12/27 07:14:07;;;;;;;3.23;2.50;;;;;;;1.76;31.11;99010.16;5092890;28;20126;-57
2021/12/27 07:16:33;;;;;;;0.93;0.93;;;;;;;1.93;30.97;99021.91;5074957;28;20051;-59
2021/12/27 07:18:58;;;;;;;3.33;1.53;;;;;;;1.85;30.92;99011.19;5091455;28;20043;-59
2021/12/27 07:21:24;;;;;;;1.60;1.50;;;;;;;1.97;30.81;99011.09;5074758;28;20500;-61
2021/12/27 07:23:50;;;;;;;1.13;1.07;;;;;;;1.70;30.72;98980.06;5075260;28;20047;-60
2021/12/27 07:26:15;;;;;;;3.27;1.80;;;;;;;1.92;30.84;99026.34;5092905;28;20047;-60
2021/12/27 07:28:41;;;;;;;0.93;0.93;;;;;;;2.13;31.02;99029.91;5091775;28;20044;-60
2021/12/27 07:31:07;;;;;;;1.00;1.00;;;;;;;2.15;30.94;99029.78;5092553;28;20089;-59
2021/12/27 07:33:34;;;;;;;0.83;0.83;;;;;;;2.41;30.88;99033.78;5090879;28;20075;-58
2021/12/27 07:36:00;;;;;;;2.57;1.90;;;;;;;2.16;30.83;99032.28;5092280;28;20044;-59
2021/12/27 07:38:25;;;;;;;1.30;1.30;;;;;;;1.95;30.70;99043.59;5074101;28;20051;-60
2021/12/27 07:40:51;;;;;;;1.20;1.20;;;;;;;1.97;30.50;99041.69;5057378;28;20499;-61
2021/12/27 07:43:17;;;;;;;1.20;1.20;;;;;;;1.97;30.50;99045.13;5074075;28;20044;-59
2021/12/27 07:45:42;;;;;;;0.73;0.73;;;;;;;2.01;30.63;99048.34;5092100;28;20169;-61
2021/12/27 07:48:10;;;;;;;0.93;0.93;;;;;;;1.90;30.62;99054.41;5107891;28;20101;-60
2021/12/27 07:50:37;;;;;;;0.90;0.90;;;;;;;2.42;30.99;99067.75;5107698;28;20036;-60
2021/12/27 07:53:03;;;;;;;1.77;1.67;;;;;;;2.28;30.78;99059.28;5074019;28;20051;-61
2021/12/27 07:55:30;;;;;;;2.23;1.70;;;;;;;2.04;31.14;99076.91;5090740;28;20083;-60
2021/12/27 07:57:57;;;;;;;5.73;1.87;;;;;;;2.18;31.00;99076.69;5091068;28;20048;-60
2021/12/27 08:00:23;;;;;;;1.20;0.90;;;;;;;2.02;30.97;99073.56;5090136;28;20048;-59
2021/12/27 08:02:51;;;;;;;1.03;1.03;;;;;;;1.94;30.85;99086.44;5074117;28;20502;-60
2021/12/27 08:05:18;;;;;;;2.33;2.13;;;;;;;2.01;31.03;99091.09;5091856;28;20044;-59
2021/12/27 08:07:46;;;;;;;0.97;0.97;;;;;;;1.87;30.94;99083.47;5091649;28;20058;-60
2021/12/27 08:10:13;;;;;;;1.00;1.00;;;;;;;2.36;30.62;99089.19;5073764;28;20523;-61
2021/12/27 08:12:40;;;;;;;0.90;0.90;;;;;;;1.88;30.69;99047.66;5057047;28;20097;-60
2021/12/27 08:15:07;;;;;;;0.87;0.87;;;;;;;2.16;31.01;99074.19;5073465;28;20614;-57
2021/12/27 08:17:33;;;;;;;0.90;0.90;;;;;;;2.14;31.05;99089.19;5090237;28;20052;-57
2021/12/27 08:19:59;;;;;;;1.10;1.10;;;;;;;2.02;30.85;99063.09;5107194;28;20039;-59
2021/12/27 08:22:24;;;;;;;0.87;0.87;;;;;;;2.20;30.93;99098.38;5073311;28;20522;-60
2021/12/27 08:24:51;;;;;;;2.47;2.27;;;;;;;2.30;31.01;99084.44;5073406;28;20522;-61
2021/12/27 08:27:19;;;;;;;1.13;1.13;;;;;;;2.84;31.10;99095.78;5090127;28;20503;-62
2021/12/27 08:29:45;;;;;;;0.93;0.93;;;;;;;2.54;30.91;99098.22;5090208;28;20096;-60
2021/12/27 08:32:11;;;;;;;1.13;1.13;;;;;;;2.61;30.65;99104.66;5089878;28;20048;-60
2021/12/27 08:34:36;;;;;;;0.93;0.93;;;;;;;2.56;31.06;99057.00;5072913;28;20361;-60
2021/12/27 08:37:02;;;;;;;1.37;1.27;;;;;;;3.15;31.21;99094.97;5073003;28;20492;-60
2021/12/27 08:39:28;;;;;;;1.07;1.07;;;;;;;3.40;32.18;99088.53;5089830;28;20066;-60
2021/12/27 08:41:54;;;;;;;0.90;0.90;;;;;;;4.04;32.08;99087.44;5090039;28;20495;-61
2021/12/27 08:44:20;;;;;;;1.07;1.07;;;;;;;4.48;31.80;99091.50;5091223;28;20040;-59
2021/12/27 08:46:45;;;;;;;1.10;1.10;;;;;;;5.14;31.22;99073.22;5073276;28;20279;-61
2021/12/27 08:49:11;;;;;;;1.23;1.10;;;;;;;5.89;31.75;99075.97;5073254;28;20140;-61
2021/12/27 08:51:37;;;;;;;2.33;1.90;;;;;;;6.54;32.08;99086.44;5091056;28;20123;-60
2021/12/27 08:54:03;;;;;;;1.50;1.37;;;;;;;7.30;31.54;99045.53;5073162;28;20149;-61
2021/12/27 08:56:30;;;;;;;1.13;1.03;;;;;;;8.01;32.03;99083.22;5072675;28;20043;-61
2021/12/27 08:58:55;;;;;;;2.07;1.57;;;;;;;8.36;31.56;99073.38;5056466;28;20144;-62
2021/12/27 09:01:21;;;;;;;1.80;1.70;;;;;;;8.91;30.86;99073.78;5072836;28;20514;-62
2021/12/27 09:03:47;;;;;;;0.60;0.60;;;;;;;9.63;32.46;99068.56;5091045;28;20042;-62
2021/12/27 09:06:14;;;;;;;0.90;0.90;;;;;;;9.96;32.24;99072.84;5089662;28;20059;-63
2021/12/27 09:08:40;;;;;;;1.90;1.80;;;;;;;10.22;30.40;99084.13;5039573;28;20040;-62
2021/12/27 09:11:07;;;;;;;1.33;1.23;;;;;;;10.51;30.31;99074.75;5088488;28;20069;-63
2021/12/27 09:13:34;;;;;;;4.60;1.50;;;;;;;10.60;30.02;99052.47;5089409;28;20044;-63
2021/12/27 09:16:01;;;;;;;1.30;1.20;;;;;;;10.56;31.67;99072.41;5038554;28;20213;-62
2021/12/27 09:18:32;;;;;;;2.77;1.67;;;;;;;11.25;29.81;99080.38;5089547;28;20048;-63
2021/12/27 09:20:59;;;;;;;;;;;;;;;11.58;28.53;99084.47;5089861;28;20055;-63
2021/12/27 09:23:25;;;;;;;1.43;1.33;;;;;;;10.84;30.38;99089.56;5090414;28;19931;-63
2021/12/27 09:25:50;;;;;;;1.10;1.00;;;;;;;10.90;30.39;99088.88;5071974;28;20040;-64
2021/12/27 09:28:16;;;;;;;1.00;1.00;;;;;;;11.38;32.54;99080.63;5072129;28;20499;-64
2021/12/27 09:30:42;;;;;;;1.23;0.90;;;;;;;11.51;33.38;99073.72;5072045;28;20051;-64
2021/12/27 09:33:08;;;;;;;2.47;1.90;;;;;;;11.55;30.99;99085.66;5090150;28;20040;-63
2021/12/27 09:35:34;;;;;;;1.00;0.80;;;;;;;12.03;33.47;99080.94;5088980;28;20047;-64
2021/12/27 09:38:00;;;;;;;1.50;1.40;;;;;;;11.86;30.51;99090.91;5072080;28;20040;-63
2021/12/27 09:40:29;;;;;;;1.07;1.00;;;;;;;12.13;32.99;99082.34;5089705;28;20122;-64
2021/12/27 09:42:55;;;;;;;1.90;1.70;;;;;;;12.17;29.69;99088.97;5105620;28;20040;-64
2021/12/27 09:45:21;;;;;;;0.97;0.90;;;;;;;12.32;29.90;99087.16;5071543;28;20496;-66
2021/12/27 09:47:50;;;;;;;1.38;1.27;;;;;;;12.63;32.04;99076.31;5071700;28;20127;-64
2021/12/27 09:50:50;;;;;;;1.92;1.75;;;;;;;13.37;29.34;99087.53;5090047;28;20040;-64
2021/12/27 09:53:16;;;;;;;1.85;1.20;;;;;;;12.72;31.36;99086.69;5064222;28;20047;-64
2021/12/27 09:55:42;;;;;;;0.60;0.60;;;;;;;12.79;32.63;99068.94;5071918;28;20039;-64
2021/12/27 09:58:07;;;;;;;1.17;0.95;;;;;;;13.05;30.53;99100.50;5088765;28;20361;-65
2021/12/27 10:00:36;;;;;;;4.70;2.00;;;;;;;13.29;30.27;99092.97;5071979;28;20044;-64
2021/12/27 10:03:04;;;;;;;1.35;0.95;;;;;;;13.43;31.34;99097.44;5090309;28;20044;-65
2021/12/27 10:05:32;;;;;;;3.30;2.10;;;;;;;13.09;30.69;99096.44;5072024;28;20058;-64
2021/12/27 10:08:00;;;;;;;2.30;1.00;;;;;;;13.36;31.43;99085.88;5071721;28;20064;-64
2021/12/27 10:10:34;;;;;;;1.10;0.98;;;;;;;14.08;30.24;99099.91;5072320;28;20108;-64
2021/12/27 10:13:01;;;;;;;0.75;0.75;;;;;;;13.73;30.83;99086.66;5088957;28;20039;-64
2021/12/27 10:15:39;;;;;;;1.98;1.60;;;;;;;14.27;29.43;99104.59;5088515;28;20146;-64
2021/12/27 10:18:13;;;;;;;2.60;1.90;;;;;;;14.24;30.39;99090.78;5072206;28;20044;-63
2021/12/27 10:20:39;;;;;;;1.27;1.17;;;;;;;13.93;30.56;99115.16;5088601;28;20043;-65
2021/12/27 10:23:09;;;;;;;0.60;0.60;;;;;;;14.19;32.08;99098.56;5073958;28;20040;-63
2021/12/27 10:25:35;;;;;;;1.48;1.35;;;;;;;13.89;30.10;99118.41;5075857;28;20051;-64
2021/12/27 10:28:02;;;;;;;2.20;1.35;;;;;;;14.10;29.68;99111.19;5075603;28;20078;-64
2021/12/27 10:30:33;;;;;;;0.80;0.80;;;;;;;14.31;31.95;99113.06;5093660;28;20086;-63
2021/12/27 10:33:06;;;;;;;1.48;1.13;;;;;;;14.50;30.03;99118.53;5058956;28;20036;-64
2021/12/27 10:35:39;;;;;;;1.45;1.20;;;;;;;14.74;30.66;99111.91;5075300;28;20526;-63
2021/12/27 10:38:20;;;;;;;2.08;1.20;;;;;;;14.91;31.02;99119.38;5092407;28;20505;-63
2021/12/27 10:40:55;;;;;;;1.65;1.40;;;;;;;14.66;29.52;99109.38;5093435;28;20044;-62
2021/12/27 10:43:32;;;;;;;1.00;0.98;;;;;;;14.50;29.89;99104.38;5094009;28;20056;-63
2021/12/27 10:46:03;;;;;;;2.57;1.30;;;;;;;14.46;31.22;99121.78;5092395;28;20039;-63
2021/12/27 10:48:36;;;;;;;3.50;2.05;;;;;;;14.45;30.79;99118.28;5093356;28;20450;-62
2021/12/27 10:51:03;;;;;;;2.17;1.50;;;;;;;13.99;30.10;99129.59;5109136;28;20044;-62
2021/12/27 10:53:55;;;;;;;1.20;1.10;;;;;;;14.29;29.74;99117.75;5058591;28;20124;-63
2021/12/27 10:56:23;;;;;;;1.20;1.10;;;;;;;14.14;31.06;99123.16;5093388;28;20496;-63
2021/12/27 10:58:57;;;;;;;2.83;2.00;;;;;;;14.34;29.31;99134.03;5091948;28;20039;-63
2021/12/27 11:01:26;;;;;;;1.45;1.35;;;;;;;14.14;29.92;99123.16;5058521;28;20039;-63
2021/12/27 11:03:54;;;;;;;0.85;0.85;;;;;;;14.18;30.66;99115.56;5092486;28;20044;-63
2021/12/27 11:06:26;;;;;;;2.30;1.60;;;;;;;14.39;30.20;99115.59;5091976;28;20048;-64
2021/12/27 11:08:53;;;;;;;2.28;1.30;;;;;;;13.91;31.04;99089.69;5092884;28;20044;-63
2021/12/27 11:11:20;;;;;;;0.98;0.98;;;;;;;13.84;29.67;99086.94;5074188;28;20040;-64
2021/12/27 11:13:49;;;;;;;1.13;1.02;;;;;;;14.15;30.01;99118.63;5070910;28;20627;-64
2021/12/27 11:16:15;;;;;;;1.52;1.40;;;;;;;13.71;31.59;99120.72;5089636;28;20050;-64
2021/12/27 11:18:41;;;;;;;1.10;1.00;;;;;;;13.73;30.03;99113.34;5088745;28;20118;-63
2021/12/27 11:21:19;;;;;;;2.25;1.70;;;;;;;14.08;29.30;99129.28;5090979;28;20077;-63
2021/12/27 11:23:49;;;;;;;2.70;1.73;;;;;;;13.78;29.94;99127.75;5088549;28;20048;-65
2021/12/27 11:26:21;;;;;;;1.58;1.17;;;;;;;13.14;29.92;99116.19;5056580;28;20043;-62
2021/12/27 11:28:47;;;;;;;1.40;1.30;;;;;;;12.70;29.36;99127.88;5087189;28;20123;-63
2021/12/27 11:31:12;;;;;;;3.57;1.60;;;;;;;12.15;29.96;99128.25;5072541;28;20067;-64
2021/12/27 11:34:01;;;;;;;2.27;1.80;;;;;;;12.35;28.91;99116.09;5090464;28;20040;-63
2021/12/27 11:36:31;;;;;;;3.83;2.73;;;;;;;11.26;29.19;99127.22;5088137;28;20044;-69
2021/12/27 11:38:58;;;;;;;2.10;1.90;;;;;;;10.47;29.37;99122.03;5039430;28;20127;-64
2021/12/27 11:41:24;;;;;;;3.17;2.23;;;;;;;9.34;29.27;99118.59;5050449;28;20507;-64
2021/12/27 11:43:59;;;;;;;1.63;1.53;;;;;;;9.46;30.10;99079.31;5069388;28;20051;-64
2021/12/27 11:46:27;;;;;;;4.50;2.30;;;;;;;9.23;32.07;99116.22;5064159;28;20051;-63
2021/12/27 11:48:55;;;;;;;2.83;2.50;;;;;;;8.93;30.37;99143.31;5084732;28;20044;-62
2021/12/27 11:51:31;;;;;;;1.70;1.60;;;;;;;8.90;31.98;99138.31;5102275;28;20047;-63
2021/12/27 11:53:57;;;;;;;2.37;2.17;;;;;;;7.85;31.07;99139.47;5086700;28;20419;-64
2021/12/27 11:56:46;;;;;;;2.13;1.93;;;;;;;8.05;31.68;99092.50;5098722;28;20101;-62
2021/12/27 11:59:41;;;;;;;2.20;1.80;;;;;;;8.13;31.42;99142.81;5080423;28;20040;-60